Time;durP1;ratioP1;P1;durP2;ratioP2;P2;SDS_P1;SDS_P2;PMS_P1;PMS_P2;Temp;Humidity;BMP_temperature;BMP_pressure;BME280_temperature;BME280_humidity;BME280_pressure;Samples;Min_cycle;Max_cycle;Signal;HPM_P1;HPM_P2
2021/03/11 00:08:54;;;;;;;34.87;19.60;;;;;;;7.86;30.23;100528.09;2549662;77;25570;-82
2021/03/11 00:23:38;;;;;;;32.23;18.43;;;;;;;7.71;30.31;100492.97;2442268;78;28110;-80
2021/03/11 00:38:02;;;;;;;30.83;18.30;;;;;;;7.62;30.49;100469.69;2493706;78;25826;-81
2021/03/11 00:41:35;;;;;;;31.97;18.40;;;;;;;7.55;30.52;100475.06;2429685;81;25699;-82
2021/03/11 00:45:20;;;;;;;33.02;18.70;;;;;;;7.53;30.43;100469.83;2334964;84;25566;-81
2021/03/11 00:49:09;;;;;;;31.40;18.00;;;;;;;7.50;30.55;100474.91;2311393;83;25511;-82
2021/03/11 00:52:59;;;;;;;33.00;18.55;;;;;;;7.48;30.49;100466.16;2326474;83;25578;-81
2021/03/11 00:57:03;;;;;;;28.35;17.60;;;;;;;7.49;30.53;100461.86;2314959;84;25837;-81
2021/03/11 01:15:55;;;;;;;29.27;16.67;;;;;;;7.38;30.64;100445.02;2496574;78;27686;-81
2021/03/11 01:20:18;;;;;;;33.00;17.90;;;;;;;7.30;30.64;100455.99;2369772;79;25668;-83
2021/03/11 01:50:47;;;;;;;33.07;16.90;;;;;;;7.14;30.81;100416.05;2542482;76;25407;-81
2021/03/11 01:54:27;;;;;;;37.93;18.80;;;;;;;7.08;30.83;100421.87;2518803;77;25587;-81
2021/03/11 01:58:41;;;;;;;;;;;;;;;;;;;;;
2021/03/11 02:13:44;;;;;;;33.27;17.43;;;;;;;7.01;30.91;100393.07;2468498;78;25505;-83
2021/03/11 02:29:23;;;;;;;33.00;20.70;;;;;;;6.90;30.96;100385.31;2525204;77;34401;-81
2021/03/11 03:14:55;;;;;;;;;;;;;;;;;;;;;
2021/03/11 03:44:35;;;;;;;31.00;17.13;;;;;;;6.38;31.42;100333.25;2505622;77;25645;-81
2021/03/11 03:52:43;;;;;;;35.80;18.10;;;;;;;6.34;31.37;100334.34;2506010;78;25561;-81
2021/03/11 03:56:52;;;;;;;32.55;18.50;;;;;;;6.28;31.46;100341.89;2399520;81;25703;-82
2021/03/11 04:00:42;;;;;;;36.53;18.48;;;;;;;6.26;31.47;100337.92;2180595;90;25846;-81
2021/03/11 04:15:40;;;;;;;33.97;18.30;;;;;;;6.22;31.61;100323.52;2498088;78;27627;-82
2021/03/11 04:19:39;;;;;;;31.70;17.48;;;;;;;6.18;31.62;100330.69;2432180;80;25693;-82
2021/03/11 04:34:26;;;;;;;35.57;18.40;;;;;;;6.11;31.71;100300.67;2448172;80;25557;-82
2021/03/11 04:38:21;;;;;;;;;;;;;;;6.04;31.67;100305.13;2357159;81;25633;-80
2021/03/11 04:42:02;;;;;;;32.35;16.77;;;;;;;6.04;31.72;100305.52;2337200;83;25872;-82
2021/03/11 05:00:36;;;;;;;27.60;16.67;;;;;;;5.99;31.75;100278.17;2533882;77;25855;-83
2021/03/11 05:04:24;;;;;;;33.58;16.65;;;;;;;5.95;31.73;100285.77;2455889;79;25816;-82
2021/03/11 05:22:20;;;;;;;30.43;17.12;;;;;;;5.95;31.78;100258.18;2387889;78;25681;-81
2021/03/11 05:31:03;;;;;;;31.87;16.50;;;;;;;6.09;31.75;100259.60;2581246;75;25416;-82
2021/03/11 05:35:19;;;;;;;;;;;;;;;;;;;;;
2021/03/11 05:39:46;;;;;;;35.95;17.17;;;;;;;6.12;31.67;100252.38;2463283;79;25466;-82
2021/03/11 05:43:28;;;;;;;28.55;16.12;;;;;;;6.16;31.66;100250.37;2474609;79;25679;-82
2021/03/11 05:58:00;;;;;;;25.80;15.57;;;;;;;6.44;31.46;100214.76;2424421;80;27035;-82
2021/03/11 06:02:17;;;;;;;32.10;16.87;;;;;;;6.50;31.37;100206.34;2590977;76;25189;-82
2021/03/11 06:06:22;;;;;;;26.68;15.58;;;;;;;6.53;31.34;100204.75;2526685;77;25605;-83
2021/03/11 06:10:07;;;;;;;;;;;;;;;;;;;;;
2021/03/11 06:14:05;;;;;;;30.57;16.00;;;;;;;6.76;31.09;100202.13;2195486;89;25879;-81
2021/03/11 06:44:12;;;;;;;30.40;15.47;;;;;;;7.63;30.44;100156.20;2552565;75;25622;-83
2021/03/11 06:52:39;;;;;;;25.92;13.72;;;;;;;7.89;30.34;100145.35;2372484;81;25881;-83
2021/03/11 07:38:08;;;;;;;;;;;;;;;;;;;;;
2021/03/11 07:56:43;;;;;;;22.83;17.00;;;;;;;13.88;26.62;100082.82;2543205;77;29068;-81
2021/03/11 08:00:30;;;;;;;25.30;15.55;;;;;;;14.58;26.10;100076.14;2464165;79;25824;-80
2021/03/11 08:04:12;;;;;;;29.55;18.15;;;;;;;15.08;25.64;100073.55;2467035;79;25673;-81
2021/03/11 08:08:54;;;;;;;;;;;;;;;;;;;;;
2021/03/11 08:12:53;;;;;;;26.17;16.17;;;;;;;15.56;24.77;100067.86;2362257;79;25828;-81
2021/03/11 08:16:28;;;;;;;22.05;15.08;;;;;;;15.55;24.56;100072.66;2456571;79;25405;-82
2021/03/11 08:20:06;;;;;;;18.80;14.28;;;;;;;15.32;24.55;100058.67;2459031;79;25611;-81
2021/03/11 08:24:34;;;;;;;22.05;15.05;;;;;;;15.09;24.68;100065.27;2391112;81;25899;-81
2021/03/11 08:33:12;;;;;;;18.82;12.78;;;;;;;14.47;24.74;100035.84;2509512;76;31253;-82
2021/03/11 08:37:25;;;;;;;18.15;13.18;;;;;;;14.23;24.85;100044.08;2293360;85;25736;-81
2021/03/11 08:41:18;;;;;;;20.70;11.75;;;;;;;14.05;24.94;100037.03;2297016;84;25746;-81
2021/03/11 08:44:54;;;;;;;17.02;11.78;;;;;;;13.85;24.87;100024.28;2266936;84;26017;-82
2021/03/11 08:48:32;;;;;;;15.90;10.13;;;;;;;13.78;25.06;100029.05;2276999;84;26167;-80
2021/03/11 08:52:11;;;;;;;15.18;10.90;;;;;;;13.69;25.26;100016.33;2303017;84;25713;-80
2021/03/11 08:55:53;;;;;;;15.80;11.48;;;;;;;13.59;25.25;100001.44;2337703;84;25683;-82
2021/03/11 08:59:57;;;;;;;12.65;10.30;;;;;;;13.52;25.29;100015.38;2339531;78;26188;-81
2021/03/11 09:03:56;;;;;;;15.18;10.00;;;;;;;13.34;25.37;99997.82;2502137;78;25693;-81
2021/03/11 09:07:39;;;;;;;11.18;10.05;;;;;;;13.18;25.44;99979.79;2498339;78;25622;-81
2021/03/11 09:11:15;;;;;;;;;;;;;;;13.09;25.38;99989.31;2500477;78;25636;-81
2021/03/11 09:14:48;;;;;;;14.55;9.55;;;;;;;12.98;25.35;99970.92;2299914;85;26085;-82
2021/03/11 09:22:43;;;;;;;12.03;9.15;;;;;;;12.95;25.43;99956.52;2199217;88;26343;-82
2021/03/11 09:52:16;;;;;;;13.70;9.70;;;;;;;13.14;24.95;99918.27;2406378;80;25756;-79
2021/03/11 10:08:52;;;;;;;17.17;8.00;;;;;;;13.77;24.87;99843.48;2370865;81;29385;-81
2021/03/11 10:12:45;;;;;;;10.18;8.83;;;;;;;13.87;24.84;99835.17;2317285;83;25848;-81
2021/03/11 10:17:02;;;;;;;9.78;8.63;;;;;;;14.18;24.75;99838.72;2345596;84;25695;-80
2021/03/11 10:20:50;;;;;;;15.57;8.53;;;;;;;14.52;24.51;99821.25;2346493;84;25392;-82
2021/03/11 10:24:57;;;;;;;9.90;8.65;;;;;;;15.00;24.30;99820.69;2513150;77;31301;-81
2021/03/11 10:28:44;;;;;;;10.35;7.62;;;;;;;15.18;24.17;99801.80;2477825;78;25634;-80
2021/03/11 10:33:16;;;;;;;;;;;;;;;;;;;;;
2021/03/11 10:36:37;;;;;;;15.43;9.15;;;;;;;15.41;23.79;99789.88;2208756;87;25877;-84
2021/03/11 10:40:26;;;;;;;12.50;9.43;;;;;;;15.35;23.37;99771.07;2225630;86;25517;-80
2021/03/11 11:05:51;;;;;;;11.43;9.00;;;;;;;14.27;23.84;99735.58;2442065;80;29791;-81
2021/03/11 11:09:17;;;;;;;13.55;9.08;;;;;;;14.16;23.91;99716.81;2339138;83;25683;-79
2021/03/11 11:13:58;;;;;;;;;;;;;;;;;;;;;
2021/03/11 11:28:34;;;;;;;13.53;10.23;;;;;;;13.90;24.49;99677.97;2517831;75;29837;-83
2021/03/11 11:36:31;;;;;;;10.38;8.30;;;;;;;13.60;24.66;99667.07;2565316;75;30158;-81
2021/03/11 11:40:18;;;;;;;;;;;;;;;;;;;;;
2021/03/11 11:43:58;;;;;;;11.07;8.47;;;;;;;13.34;24.82;99643.08;2572710;75;31298;-75
2021/03/11 11:47:32;;;;;;;12.15;9.23;;;;;;;13.22;24.94;99610.31;2518092;77;25724;-80
2021/03/11 11:51:14;;;;;;;9.93;8.35;;;;;;;13.13;25.02;99604.66;2502157;79;25265;-83
2021/03/11 11:54:54;;;;;;;12.88;8.55;;;;;;;13.08;25.13;99598.97;2502343;79;25728;-79
2021/03/11 11:58:46;;;;;;;12.23;8.55;;;;;;;12.99;25.25;99591.56;2502308;79;25697;-77
2021/03/11 12:02:17;;;;;;;11.10;9.05;;;;;;;12.94;25.30;99595.03;2502603;77;25530;-79
2021/03/11 12:05:57;;;;;;;12.07;8.20;;;;;;;12.86;25.34;99573.20;2525600;77;25533;-80
2021/03/11 12:09:34;;;;;;;12.63;9.40;;;;;;;12.72;25.48;99553.16;2480283;79;25567;-78
2021/03/11 12:12:58;;;;;;;10.65;8.55;;;;;;;12.64;25.57;99519.56;2528510;77;25768;-79
2021/03/11 12:16:36;;;;;;;17.65;8.70;;;;;;;12.58;25.75;99503.87;2541427;77;25241;-79
2021/03/11 12:20:13;;;;;;;13.38;8.68;;;;;;;12.55;25.80;99502.55;2548214;77;25320;-77
2021/03/11 12:37:48;;;;;;;17.03;10.57;;;;;;;11.46;26.15;99422.96;2542016;77;27438;-82
2021/03/11 12:41:20;;;;;;;11.20;9.38;;;;;;;11.40;26.34;99425.54;2474833;78;25373;-82
2021/03/11 12:45:00;;;;;;;19.65;10.03;;;;;;;11.37;26.40;99429.44;2390187;77;25936;-81
2021/03/11 12:59:22;;;;;;;16.17;12.37;;;;;;;11.23;26.83;99391.09;2521496;76;32310;-83
2021/03/11 13:03:17;;;;;;;17.17;11.85;;;;;;;11.24;26.85;99399.83;2499796;78;25762;-82
2021/03/11 13:06:47;;;;;;;13.40;11.05;;;;;;;11.12;26.88;99384.96;2491170;78;25564;-81
2021/03/11 13:10:28;;;;;;;14.73;12.45;;;;;;;10.94;26.94;99396.61;2416383;81;25761;-83
2021/03/11 13:13:53;;;;;;;21.37;13.50;;;;;;;10.81;27.12;99385.22;2386368;81;25712;-83
2021/03/11 13:17:17;;;;;;;20.70;12.68;;;;;;;10.74;27.24;99361.28;2427029;80;25684;-82
2021/03/11 13:20:41;;;;;;;13.88;11.35;;;;;;;10.70;27.27;99360.39;2428512;80;25896;-82
2021/03/11 13:24:17;;;;;;;24.72;12.33;;;;;;;10.73;27.31;99356.91;2443930;80;25704;-82
2021/03/11 13:53:31;;;;;;;20.37;13.30;;;;;;;10.03;28.12;99316.42;2617388;74;25495;-81
2021/03/11 13:57:00;;;;;;;16.90;12.87;;;;;;;10.00;28.22;99311.61;2571669;76;25711;-82
2021/03/11 14:00:33;;;;;;;16.62;12.47;;;;;;;9.99;28.27;99293.82;2567314;76;25366;-83
2021/03/11 14:04:32;;;;;;;21.27;13.65;;;;;;;9.94;28.35;99292.46;2571512;76;25659;-83
2021/03/11 14:19:05;;;;;;;22.50;13.03;;;;;;;9.78;28.78;99240.25;2560480;74;25131;-83
2021/03/11 14:22:39;;;;;;;;;;;;;;;;;;;;;
2021/03/11 14:26:30;;;;;;;24.53;14.10;;;;;;;9.59;28.98;99254.42;2622120;73;25561;-84
2021/03/11 14:30:16;;;;;;;20.02;13.40;;;;;;;9.46;29.09;99241.72;2487405;79;26157;-81
2021/03/11 14:33:46;;;;;;;17.27;14.15;;;;;;;9.38;29.20;99231.68;2462255;79;25717;-82
2021/03/11 14:37:18;;;;;;;17.35;13.90;;;;;;;9.31;29.38;99228.98;2484091;79;25758;-82
2021/03/11 15:18:39;;;;;;;;;;;;;;;;;;;;;
2021/03/11 15:22:14;;;;;;;29.67;15.50;;;;;;;8.38;32.19;99122.28;2533474;76;25707;-82
2021/03/11 15:26:02;;;;;;;28.35;15.18;;;;;;;8.24;32.69;99105.20;2442226;79;27024;-81
2021/03/11 15:29:22;;;;;;;26.50;15.35;;;;;;;8.20;33.12;99110.78;2472663;79;26102;-82
2021/03/11 15:32:51;;;;;;;27.17;15.23;;;;;;;8.17;33.50;99131.94;2397412;78;25735;-81
2021/03/11 15:36:38;;;;;;;;;;;;;;;8.05;34.36;99115.33;2416406;80;25706;-81
2021/03/11 15:40:28;;;;;;;28.92;16.60;;;;;;;7.95;35.22;99099.19;2308818;82;25714;-82
2021/03/11 15:44:33;;;;;;;;;;;;;;;;;;;;;
2021/03/11 15:48:00;;;;;;;22.05;14.63;;;;;;;7.91;36.34;99125.09;2542561;76;25683;-81
2021/03/11 15:51:37;;;;;;;24.87;14.20;;;;;;;7.95;36.77;99108.70;2423425;80;25843;-78
2021/03/11 15:55:08;;;;;;;19.55;14.38;;;;;;;8.01;37.16;99095.81;2430306;80;25907;-79
2021/03/11 15:58:51;;;;;;;20.50;13.75;;;;;;;8.10;37.33;99083.37;2415456;80;25687;-74
2021/03/11 16:02:41;;;;;;;22.80;13.63;;;;;;;8.24;37.65;99076.21;2555882;77;25501;-78
2021/03/11 16:06:07;;;;;;;27.10;13.72;;;;;;;8.23;37.80;99090.05;2518221;78;25590;-75
2021/03/11 16:09:30;;;;;;;17.70;13.22;;;;;;;8.29;38.01;99073.23;2519279;78;25614;-74
2021/03/11 16:12:54;;;;;;;25.92;12.45;;;;;;;8.30;38.05;99059.81;2519414;78;25675;-81
2021/03/11 16:16:22;;;;;;;20.85;14.55;;;;;;;8.30;38.22;99052.02;2519278;78;25614;-79
2021/03/11 16:19:44;;;;;;;19.48;12.85;;;;;;;8.33;38.33;99052.06;2493669;78;25628;-77
2021/03/11 16:23:06;;;;;;;15.63;12.45;;;;;;;8.31;38.47;99025.66;2474535;80;25591;-80
2021/03/11 16:26:30;;;;;;;17.15;13.53;;;;;;;8.27;38.67;99011.34;2474177;80;25661;-80
2021/03/11 16:30:00;;;;;;;18.12;12.73;;;;;;;8.28;38.80;99004.42;2469985;80;25847;-75
2021/03/11 16:33:47;;;;;;;24.23;13.10;;;;;;;8.30;38.91;98997.50;2469813;80;25808;-79
2021/03/11 16:37:14;;;;;;;16.75;12.73;;;;;;;8.30;38.94;98989.71;2470131;80;25654;-75
2021/03/11 16:40:36;;;;;;;19.82;13.53;;;;;;;8.24;39.14;98980.59;2470181;80;25713;-75
2021/03/11 16:44:01;;;;;;;17.35;11.78;;;;;;;8.23;39.33;98975.83;2469767;80;25222;-76
2021/03/11 16:47:32;;;;;;;17.60;12.82;;;;;;;8.24;39.41;98977.99;2464956;80;25682;-78
2021/03/11 16:50:58;;;;;;;13.50;11.65;;;;;;;8.22;39.48;98957.19;2415717;80;25682;-79
2021/03/11 16:54:20;;;;;;;17.00;12.75;;;;;;;8.19;39.73;98957.16;2439449;80;25315;-80
2021/03/11 16:57:44;;;;;;;17.57;11.75;;;;;;;8.22;39.77;98953.30;2470264;80;25660;-81
2021/03/11 17:01:10;;;;;;;17.20;13.00;;;;;;;8.18;39.80;98946.77;2469088;78;25661;-77
2021/03/11 17:04:34;;;;;;;26.27;13.45;;;;;;;8.14;39.96;98925.54;2437334;80;25742;-73
2021/03/11 17:07:56;;;;;;;15.85;12.03;;;;;;;8.09;40.25;98911.20;2431141;81;25713;-78
2021/03/11 17:11:17;;;;;;;19.55;12.58;;;;;;;8.05;40.38;98906.84;2431115;81;25670;-80
2021/03/11 17:14:39;;;;;;;20.75;12.98;;;;;;;8.03;40.52;98895.16;2430261;81;25596;-87
2021/03/11 17:18:06;;;;;;;16.67;13.18;;;;;;;8.02;40.71;98895.13;2429301;81;25727;-82
2021/03/11 17:21:35;;;;;;;15.85;11.95;;;;;;;7.99;40.76;98908.07;2422295;81;26525;-80
2021/03/11 17:25:21;;;;;;;24.02;14.28;;;;;;;7.95;40.94;98879.92;2430439;80;25316;-83
2021/03/11 17:28:43;;;;;;;25.17;12.73;;;;;;;7.97;41.08;98879.95;2353818;81;25810;-84
2021/03/11 17:32:17;;;;;;;24.10;12.93;;;;;;;7.98;41.08;98892.06;2338965;82;25744;-78
2021/03/11 17:36:03;;;;;;;18.00;13.20;;;;;;;7.95;41.22;98859.16;2344408;82;26398;-82
2021/03/11 17:53:52;;;;;;;19.97;11.73;;;;;;;7.95;41.70;98842.30;2660299;74;25776;-81
2021/03/11 17:57:37;;;;;;;15.38;11.40;;;;;;;7.89;41.67;98834.45;2601030;76;25647;-81
2021/03/11 18:01:11;;;;;;;20.05;12.70;;;;;;;7.87;41.74;98847.86;2625203;75;25725;-82
2021/03/11 18:04:39;;;;;;;18.45;12.93;;;;;;;7.84;41.81;98823.17;2542321;76;25377;-83
2021/03/11 18:08:01;;;;;;;24.00;13.13;;;;;;;7.80;41.94;98814.93;2558554;77;25684;-79
2021/03/11 18:11:29;;;;;;;17.67;12.70;;;;;;;7.80;42.13;98813.63;2575384;76;25298;-81
2021/03/11 18:14:50;;;;;;;20.40;13.00;;;;;;;7.80;42.22;98811.04;2576273;75;25691;-78
2021/03/11 18:22:09;;;;;;;22.63;13.23;;;;;;;7.81;42.50;98785.53;2514535;77;25603;-83
2021/03/11 18:25:55;;;;;;;17.05;13.55;;;;;;;7.79;42.67;98781.61;2464146;79;25683;-81
2021/03/11 18:29:30;;;;;;;19.35;12.23;;;;;;;7.81;42.66;98772.13;2467192;80;25647;-82
2021/03/11 18:33:00;;;;;;;16.45;12.03;;;;;;;7.81;42.81;98763.05;2466576;80;25715;-82
2021/03/11 18:36:37;;;;;;;64.17;17.75;;;;;;;7.84;42.96;98749.67;2446702;80;25594;-77
2021/03/11 18:40:17;;;;;;;54.40;17.02;;;;;;;8.18;48.16;98743.87;2448090;80;32461;-80
2021/03/11 18:44:05;;;;;;;47.95;16.73;;;;;;;8.41;47.47;98735.41;2447886;80;25667;-81
2021/03/11 18:47:42;;;;;;;48.30;15.90;;;;;;;8.41;47.32;98716.80;2448080;80;25647;-77
2021/03/11 18:51:14;;;;;;;32.28;15.15;;;;;;;8.37;47.45;98692.95;2448057;80;26258;-77
2021/03/11 18:59:28;;;;;;;34.73;15.67;;;;;;;8.36;47.03;98688.59;2478577;78;25523;-80
2021/03/11 19:03:56;;;;;;;30.57;13.83;;;;;;;8.33;46.83;98672.13;2430094;81;25903;-86
2021/03/11 19:22:59;;;;;;;23.12;13.05;;;;;;;8.17;46.26;98640.92;2533127;76;25857;-79
2021/03/11 19:27:53;;;;;;;22.90;13.37;;;;;;;8.19;46.30;98632.69;2579076;75;25811;-76
2021/03/11 19:31:25;;;;;;;;;;;;;;;;;;;;;
2021/03/11 19:35:34;;;;;;;19.37;12.23;;;;;;;8.26;46.28;98637.48;2586771;75;25499;-85
2021/03/11 19:39:23;;;;;;;18.02;12.35;;;;;;;8.20;46.34;98629.66;2523982;76;25644;-77
2021/03/11 19:42:46;;;;;;;15.68;12.60;;;;;;;8.19;46.22;98618.84;2388700;80;25739;-80
2021/03/11 19:46:14;;;;;;;20.62;12.05;;;;;;;8.19;46.25;98624.04;2409383;80;25356;-83
2021/03/11 19:49:41;;;;;;;17.90;13.20;;;;;;;8.18;46.41;98610.20;2512966;77;25724;-84
2021/03/11 19:53:12;;;;;;;16.40;12.53;;;;;;;8.19;46.51;98596.78;2473030;78;26387;-84
2021/03/11 19:56:40;;;;;;;16.25;11.75;;;;;;;8.21;46.56;98595.08;2509984;78;25542;-77
2021/03/11 20:00:13;;;;;;;17.25;12.13;;;;;;;8.22;46.46;98578.63;2502505;78;26691;-82
2021/03/11 20:03:35;;;;;;;16.57;13.32;;;;;;;8.25;46.55;98579.51;2492880;78;25634;-76
2021/03/11 20:07:00;;;;;;;16.82;12.78;;;;;;;8.26;46.54;98580.37;2415451;80;25933;-78
2021/03/11 20:10:31;;;;;;;16.00;13.25;;;;;;;8.23;46.64;98589.44;2433474;80;25801;-85
2021/03/11 20:13:59;;;;;;;18.27;12.80;;;;;;;8.24;46.59;98584.70;2432403;80;25836;-78
2021/03/11 20:17:20;;;;;;;18.27;12.13;;;;;;;8.27;46.75;98574.34;2418979;81;25785;-79
2021/03/11 20:20:44;;;;;;;16.70;12.13;;;;;;;8.25;46.63;98564.37;2441030;80;25836;-81
2021/03/11 20:24:21;;;;;;;20.48;13.83;;;;;;;8.23;46.79;98559.59;2396038;80;25642;-75
2021/03/11 20:27:43;;;;;;;23.10;12.53;;;;;;;8.23;46.89;98567.37;2417535;80;26136;-84
2021/03/11 20:31:16;;;;;;;18.32;13.22;;;;;;;8.26;46.90;98551.81;2399557;80;25675;-76
2021/03/11 20:35:08;;;;;;;16.23;13.30;;;;;;;8.35;46.81;98552.29;2551451;77;25648;-83
2021/03/11 20:38:32;;;;;;;19.65;14.07;;;;;;;8.29;46.91;98541.45;2420601;81;25737;-79
2021/03/11 20:46:48;;;;;;;15.77;12.70;;;;;;;8.33;47.16;98508.13;2465913;78;25257;-77
2021/03/11 20:51:32;;;;;;;;;;;;;;;;;;;;;
2021/03/11 20:55:16;;;;;;;18.85;14.15;;;;;;;8.32;47.22;98510.30;2398725;81;26129;-74
2021/03/11 20:58:42;;;;;;;19.85;14.75;;;;;;;8.29;47.29;98519.38;2362060;82;25735;-77
2021/03/11 21:02:36;;;;;;;;;;;;;;;;;;;;;
2021/03/11 21:06:14;;;;;;;;;;;;;;;;;;;;;
2021/03/11 21:09:42;;;;;;;20.37;13.93;;;;;;;8.26;47.52;98525.86;2242254;87;25572;-82
2021/03/11 21:13:08;;;;;;;22.98;15.55;;;;;;;8.24;47.67;98505.54;2247999;88;25725;-84
2021/03/11 21:16:50;;;;;;;;;;;;;;;;;;;;;
2021/03/11 21:20:30;;;;;;;24.80;15.17;;;;;;;8.36;47.69;98493.86;2593931;76;25413;-80
2021/03/11 21:23:56;;;;;;;22.27;14.15;;;;;;;8.34;47.73;98493.02;2540333;77;25616;-84
2021/03/11 21:27:33;;;;;;;20.08;13.93;;;;;;;8.38;47.67;98492.19;2489304;77;25500;-90
2021/03/11 21:31:14;;;;;;;21.02;15.00;;;;;;;8.39;47.63;98478.33;2511866;78;25564;-76
2021/03/11 21:35:29;;;;;;;;;;;;;;;;;;;;;
2021/03/11 22:05:32;;;;;;;25.05;16.50;;;;;;;8.43;48.21;98438.95;2363505;79;25514;-84
2021/03/11 22:09:23;;;;;;;23.50;17.10;;;;;;;8.47;48.25;98441.98;2239260;86;25640;-83
2021/03/11 22:13:24;;;;;;;28.30;17.07;;;;;;;8.53;48.42;98431.60;2517427;78;28119;-77
2021/03/11 22:17:37;;;;;;;;;;;;;;;;;;;;;
2021/03/11 22:21:37;;;;;;;22.40;16.70;;;;;;;8.57;48.55;98432.47;2290199;85;25965;-76
2021/03/11 22:39:56;;;;;;;23.47;17.10;;;;;;;8.67;48.67;98427.30;2388605;82;25750;-80
2021/03/11 22:43:46;;;;;;;23.02;17.30;;;;;;;8.70;48.70;98440.70;2191390;90;25501;-80
2021/03/11 23:09:33;;;;;;;;;;;;;;;;;;;;;
2021/03/11 23:13:22;;;;;;;26.40;16.73;;;;;;;8.88;48.98;98425.11;2605860;76;25401;-75
2021/03/11 23:17:00;;;;;;;24.95;16.67;;;;;;;8.86;49.03;98436.38;2565204;77;25755;-89
2021/03/11 23:20:43;;;;;;;29.07;18.42;;;;;;;8.89;49.09;98442.87;2558738;77;25581;-87
2021/03/11 23:34:09;;;;;;;30.27;17.48;;;;;;;8.94;49.09;98416.02;2195083;87;25471;-84
2021/03/11 23:37:30;;;;;;;24.10;16.57;;;;;;;8.95;49.19;98408.64;2194167;90;25739;-78
2021/03/11 23:41:02;;;;;;;23.75;15.95;;;;;;;8.97;49.22;98408.63;2255423;87;25293;-80
2021/03/11 23:44:26;;;;;;;30.30;18.62;;;;;;;8.98;49.25;98420.34;2255264;87;25514;-82
2021/03/11 23:47:53;;;;;;;23.60;17.37;;;;;;;8.99;49.29;98414.27;2255463;87;25388;-74
